Time;durP1;ratioP1;P1;durP2;ratioP2;P2;SDS_P1;SDS_P2;PMS_P1;PMS_P2;Temp;Humidity;BMP_temperature;BMP_pressure;BME280_temperature;BME280_humidity;BME280_pressure;Samples;Min_cycle;Max_cycle;Signal;HPM_P1;HPM_P2
2024/03/10 00:00:24;;;;;;;19.10;10.93;;;;;;;9.96;100.00;99902.50;5135190;27;20055;-46
2024/03/10 00:02:53;;;;;;;16.90;10.25;;;;;;;9.94;100.00;99893.72;5135260;27;20047;-44
2024/03/10 00:05:23;;;;;;;17.20;10.02;;;;;;;9.99;100.00;99891.63;5134786;27;20083;-46
2024/03/10 00:07:52;;;;;;;15.25;9.38;;;;;;;9.83;100.00;99891.75;5134692;27;20112;-45
2024/03/10 00:10:20;;;;;;;18.40;10.40;;;;;;;9.91;100.00;99888.59;5134930;27;20066;-44
2024/03/10 00:12:50;;;;;;;17.95;10.10;;;;;;;9.89;100.00;99883.38;5134898;27;20490;-43
2024/03/10 00:15:20;;;;;;;16.35;10.30;;;;;;;9.93;100.00;99876.88;5135437;27;20751;-46
2024/03/10 00:17:49;;;;;;;15.88;9.80;;;;;;;9.92;100.00;99874.31;5135490;27;20047;-45
2024/03/10 00:20:20;;;;;;;16.77;10.43;;;;;;;9.75;100.00;99873.59;5135252;27;20135;-45
2024/03/10 00:22:49;;;;;;;17.83;9.85;;;;;;;9.84;100.00;99863.28;5134938;27;20483;-45
2024/03/10 00:25:20;;;;;;;16.30;9.73;;;;;;;9.81;100.00;99868.81;5134510;27;20411;-44
2024/03/10 00:27:49;;;;;;;17.48;10.05;;;;;;;9.78;100.00;99856.56;5134513;27;20047;-45
2024/03/10 00:30:19;;;;;;;16.95;10.07;;;;;;;9.80;100.00;99845.81;5134864;27;20081;-44
2024/03/10 00:32:48;;;;;;;17.70;10.57;;;;;;;9.67;100.00;99838.59;5134513;27;20044;-43
2024/03/10 00:35:16;;;;;;;17.98;10.85;;;;;;;9.71;100.00;99834.78;5134312;27;20049;-46
2024/03/10 00:37:45;;;;;;;16.15;9.98;;;;;;;9.63;100.00;99831.72;5134180;27;20133;-43
2024/03/10 00:40:14;;;;;;;17.10;10.50;;;;;;;9.65;100.00;99845.84;5134201;27;20035;-45
2024/03/10 00:42:43;;;;;;;17.23;10.95;;;;;;;9.72;100.00;99843.63;5134442;27;20043;-44
2024/03/10 00:45:12;;;;;;;18.00;10.95;;;;;;;9.61;100.00;99846.97;5134167;27;20098;-44
2024/03/10 00:47:45;;;;;;;18.77;10.50;;;;;;;9.50;100.00;99835.28;5134323;27;20047;-44
2024/03/10 00:50:14;;;;;;;16.98;10.02;;;;;;;9.54;100.00;99834.97;5134019;27;20045;-44
2024/03/10 00:52:43;;;;;;;18.85;10.82;;;;;;;9.61;100.00;99832.78;5134344;27;20063;-44
2024/03/10 00:55:11;;;;;;;18.92;11.30;;;;;;;9.67;100.00;99832.41;5134203;27;20047;-45
2024/03/10 00:57:40;;;;;;;18.05;10.85;;;;;;;9.45;100.00;99822.22;5134146;27;20070;-45
2024/03/10 01:00:10;;;;;;;19.95;11.70;;;;;;;9.48;100.00;99811.41;5133858;27;20050;-43
2024/03/10 01:02:39;;;;;;;21.30;12.40;;;;;;;9.42;100.00;99817.13;5134211;27;20043;-45
2024/03/10 01:05:10;;;;;;;21.38;12.30;;;;;;;9.48;100.00;99814.06;5136855;27;20050;-45
2024/03/10 01:07:39;;;;;;;21.60;11.70;;;;;;;9.54;100.00;99813.66;5133933;27;20053;-44
2024/03/10 01:10:11;;;;;;;22.35;13.05;;;;;;;9.36;100.00;99812.16;5133666;27;20046;-45
2024/03/10 01:12:40;;;;;;;20.65;12.80;;;;;;;9.22;100.00;99809.50;5133761;27;20039;-45
2024/03/10 01:15:10;;;;;;;19.13;11.63;;;;;;;9.35;100.00;99805.97;5133458;27;20121;-45
2024/03/10 01:17:38;;;;;;;21.42;12.15;;;;;;;9.33;100.00;99815.03;5133508;27;20039;-45
2024/03/10 01:20:08;;;;;;;20.55;12.45;;;;;;;9.25;100.00;99811.97;5132751;27;20047;-45
2024/03/10 01:22:38;;;;;;;23.17;12.82;;;;;;;9.34;100.00;99827.38;5133709;27;20047;-44
2024/03/10 01:25:07;;;;;;;20.52;12.40;;;;;;;9.50;100.00;99836.13;5133360;27;20039;-44
2024/03/10 01:27:36;;;;;;;19.90;12.02;;;;;;;9.59;100.00;99832.91;5133516;27;20130;-44
2024/03/10 01:30:05;;;;;;;19.13;12.27;;;;;;;9.59;100.00;99830.22;5133255;27;20047;-43
2024/03/10 01:32:33;;;;;;;20.58;12.52;;;;;;;9.67;100.00;99830.59;5133219;27;20440;-45
2024/03/10 01:35:04;;;;;;;21.70;12.43;;;;;;;9.49;100.00;99829.09;5133201;27;20051;-43
2024/03/10 01:37:32;;;;;;;22.67;12.82;;;;;;;9.59;100.00;99834.69;5133230;27;20050;-44
2024/03/10 01:40:04;;;;;;;23.08;13.13;;;;;;;9.72;100.00;99830.31;5133086;27;20039;-44
2024/03/10 01:42:33;;;;;;;20.60;12.63;;;;;;;9.66;100.00;99834.22;5132884;27;20142;-46
2024/03/10 01:45:03;;;;;;;20.80;12.63;;;;;;;9.67;100.00;99819.09;5132679;27;20047;-45
2024/03/10 01:47:32;;;;;;;21.83;12.55;;;;;;;9.45;100.00;99827.56;5133103;27;20043;-45
2024/03/10 01:50:01;;;;;;;19.90;12.00;;;;;;;9.57;100.00;99826.81;5132692;27;20047;-44
2024/03/10 01:52:30;;;;;;;21.05;12.25;;;;;;;9.64;100.00;99821.94;5132920;27;20075;-45
2024/03/10 01:55:00;;;;;;;20.98;12.20;;;;;;;9.62;100.00;99814.06;5132791;27;20593;-45
2024/03/10 01:57:30;;;;;;;22.55;12.80;;;;;;;9.60;100.00;99799.97;5132822;27;20047;-45
2024/03/10 01:59:58;;;;;;;21.75;12.65;;;;;;;9.58;100.00;99806.38;5132493;27;20053;-44
2024/03/10 02:02:27;;;;;;;24.13;12.90;;;;;;;9.72;100.00;99804.53;5132729;27;20415;-45
2024/03/10 02:04:57;;;;;;;20.20;12.50;;;;;;;9.72;100.00;99804.53;5132700;27;20420;-45
2024/03/10 02:07:26;;;;;;;20.52;12.13;;;;;;;9.61;100.00;99796.38;5132437;27;20072;-45
2024/03/10 02:09:56;;;;;;;21.50;13.23;;;;;;;9.64;100.00;99790.84;5132045;27;20544;-44
2024/03/10 02:12:24;;;;;;;20.80;12.23;;;;;;;9.52;100.00;99799.59;5132599;27;20404;-44
2024/03/10 02:15:02;;;;;;;18.83;11.40;;;;;;;9.50;100.00;99793.53;5132495;27;20047;-44
2024/03/10 02:17:31;;;;;;;20.33;12.52;;;;;;;9.49;100.00;99802.47;5132368;27;20508;-44
2024/03/10 02:19:59;;;;;;;22.13;13.00;;;;;;;9.54;100.00;99789.72;5132426;27;20050;-42
2024/03/10 02:22:29;;;;;;;22.55;13.25;;;;;;;9.66;100.00;99799.59;5132447;27;20051;-45
2024/03/10 02:24:59;;;;;;;22.33;12.88;;;;;;;9.74;100.00;99805.28;5132259;27;20043;-45
2024/03/10 02:27:30;;;;;;;22.50;12.98;;;;;;;9.65;100.00;99807.66;5132142;27;20051;-43
2024/03/10 02:30:18;;;;;;;22.33;11.98;;;;;;;9.69;100.00;99811.88;5132004;27;20051;-44
2024/03/10 02:49:27;;;;;;;23.63;12.95;;;;;;;9.25;100.00;99785.34;5105551;27;20107;-43
2024/03/10 02:51:55;;;;;;;24.13;13.35;;;;;;;9.21;100.00;99776.72;5132048;27;20047;-43
2024/03/10 02:54:24;;;;;;;22.85;13.38;;;;;;;9.10;100.00;99784.50;5131965;28;20072;-45
2024/03/10 02:56:52;;;;;;;22.35;13.35;;;;;;;9.17;100.00;99778.72;5131866;27;20047;-43
2024/03/10 02:59:22;;;;;;;22.77;13.13;;;;;;;9.12;100.00;99775.47;5131683;27;20134;-43
2024/03/10 03:01:50;;;;;;;22.65;13.32;;;;;;;9.17;100.00;99767.22;5131488;27;20051;-47
2024/03/10 03:04:19;;;;;;;22.55;12.90;;;;;;;9.22;100.00;99772.25;5131473;27;20122;-44
2024/03/10 03:06:47;;;;;;;22.38;13.48;;;;;;;9.22;100.00;99758.94;5131956;28;20441;-44
2024/03/10 03:09:16;;;;;;;23.65;13.23;;;;;;;9.18;100.00;99759.16;5131958;27;20047;-43
2024/03/10 03:11:45;;;;;;;24.25;13.98;;;;;;;9.23;100.00;99756.19;5131961;28;20043;-44
2024/03/10 03:14:14;;;;;;;24.38;13.15;;;;;;;9.19;100.00;99752.03;5131684;27;20047;-45
2024/03/10 03:16:44;;;;;;;25.13;14.13;;;;;;;9.13;100.00;99745.25;5131503;27;20072;-44
2024/03/10 03:19:13;;;;;;;24.35;13.20;;;;;;;9.17;100.00;99740.63;5132030;27;20433;-45
2024/03/10 03:21:42;;;;;;;25.23;14.02;;;;;;;9.28;100.00;99734.63;5131650;28;20043;-43
2024/03/10 03:24:13;;;;;;;23.95;13.25;;;;;;;9.29;100.00;99739.00;5131257;27;20048;-44
2024/03/10 03:26:42;;;;;;;23.98;13.25;;;;;;;9.22;100.00;99724.34;5131404;27;20134;-45
2024/03/10 03:29:10;;;;;;;24.23;13.45;;;;;;;9.27;100.00;99728.44;5131259;27;20089;-43
2024/03/10 03:31:39;;;;;;;23.85;13.05;;;;;;;9.25;100.00;99724.16;5131420;27;20122;-44
2024/03/10 03:34:09;;;;;;;23.40;13.63;;;;;;;9.21;100.00;99719.97;5131501;27;20130;-47
2024/03/10 03:36:37;;;;;;;22.52;13.13;;;;;;;9.38;100.00;99719.78;5131273;27;20043;-44
2024/03/10 03:39:09;;;;;;;23.17;13.80;;;;;;;9.30;100.00;99711.41;5131550;28;20039;-43
2024/03/10 03:41:37;;;;;;;23.23;13.40;;;;;;;9.11;100.00;99717.91;5131231;27;20043;-47
2024/03/10 03:44:07;;;;;;;24.98;14.98;;;;;;;9.20;100.00;99707.63;5135077;27;20418;-44
2024/03/10 03:46:35;;;;;;;25.40;13.27;;;;;;;8.99;100.00;99713.34;5135241;27;20047;-44
2024/03/10 03:49:04;;;;;;;25.00;13.57;;;;;;;9.14;100.00;99707.06;5135020;27;20047;-44
2024/03/10 03:51:34;;;;;;;24.60;14.27;;;;;;;9.14;100.00;99700.88;5135054;27;20578;-44
2024/03/10 03:54:05;;;;;;;24.67;14.27;;;;;;;9.08;100.00;99702.13;5135086;27;20452;-45
2024/03/10 03:56:34;;;;;;;24.58;14.13;;;;;;;9.17;100.00;99704.22;5134967;27;20047;-45
2024/03/10 03:59:03;;;;;;;25.88;14.50;;;;;;;9.19;100.00;99704.13;5134908;27;20040;-47
2024/03/10 04:01:34;;;;;;;24.48;15.00;;;;;;;9.10;100.00;99705.56;5134719;27;20111;-45
2024/03/10 04:04:03;;;;;;;27.23;14.50;;;;;;;9.30;100.00;99716.75;5134822;27;20092;-45
2024/03/10 04:06:32;;;;;;;21.30;13.52;;;;;;;9.22;100.00;99711.03;5134657;27;20047;-45
2024/03/10 04:09:02;;;;;;;26.15;14.27;;;;;;;9.27;100.00;99714.28;5134744;27;20128;-43
2024/03/10 04:11:31;;;;;;;22.38;13.48;;;;;;;9.32;100.00;99718.34;5134641;27;20044;-46
2024/03/10 04:14:00;;;;;;;25.05;14.52;;;;;;;9.20;100.00;99713.81;5134799;27;20120;-44
2024/03/10 04:16:29;;;;;;;20.33;12.63;;;;;;;9.27;100.00;99706.31;5134650;27;20439;-48
2024/03/10 04:18:58;;;;;;;23.50;14.13;;;;;;;9.21;100.00;99706.69;5134734;27;20055;-44
2024/03/10 04:21:28;;;;;;;24.40;14.10;;;;;;;9.07;100.00;99700.44;5134388;27;20067;-44
2024/03/10 04:23:56;;;;;;;23.23;14.07;;;;;;;9.01;100.00;99703.47;5134852;27;20051;-44
2024/03/10 04:26:27;;;;;;;25.15;13.70;;;;;;;9.15;100.00;99708.75;5134564;27;20046;-45
2024/03/10 04:28:56;;;;;;;25.55;14.15;;;;;;;9.21;100.00;99709.34;5134593;27;20411;-45
2024/03/10 04:31:24;;;;;;;25.15;14.98;;;;;;;9.27;100.00;99701.84;5134307;27;20088;-45
2024/03/10 04:33:53;;;;;;;24.33;13.70;;;;;;;8.92;100.00;99701.38;5134489;27;20043;-46
2024/03/10 04:36:21;;;;;;;22.13;13.43;;;;;;;8.91;100.00;99694.34;5134391;27;20043;-45
2024/03/10 04:38:49;;;;;;;25.55;13.98;;;;;;;8.95;100.00;99700.31;5134428;27;20049;-47
2024/03/10 04:41:18;;;;;;;23.20;13.38;;;;;;;9.09;100.00;99698.53;5134365;27;20043;-44
2024/03/10 04:43:48;;;;;;;25.70;14.38;;;;;;;9.06;100.00;99713.81;5134057;27;20047;-47
2024/03/10 04:46:17;;;;;;;24.17;13.90;;;;;;;9.24;100.00;99715.31;5134087;27;20043;-44
2024/03/10 04:48:46;;;;;;;25.00;13.52;;;;;;;9.41;100.00;99722.22;5134043;27;20051;-44
2024/03/10 04:51:15;;;;;;;23.25;13.30;;;;;;;9.49;100.00;99719.94;5134260;27;20043;-45
2024/03/10 04:53:44;;;;;;;24.27;14.18;;;;;;;9.26;100.00;99725.84;5114431;28;20554;-46
2024/03/10 04:56:13;;;;;;;24.13;14.20;;;;;;;9.37;100.00;99723.41;5133937;27;20070;-44
2024/03/10 04:58:41;;;;;;;23.73;13.65;;;;;;;9.28;100.00;99735.47;5133839;27;20053;-46
2024/03/10 05:01:12;;;;;;;23.92;14.23;;;;;;;9.39;100.00;99732.97;5133715;27;20067;-45
2024/03/10 05:03:41;;;;;;;23.25;13.40;;;;;;;9.45;100.00;99718.41;5133783;27;20077;-45
2024/03/10 05:06:10;;;;;;;21.60;13.45;;;;;;;9.31;100.00;99721.13;5133829;27;20458;-44
2024/03/10 05:08:38;;;;;;;23.90;13.93;;;;;;;9.29;100.00;99715.03;5133575;27;20094;-43
2024/03/10 05:11:06;;;;;;;24.70;14.50;;;;;;;9.15;100.00;99708.75;5133804;27;20047;-44
2024/03/10 05:13:35;;;;;;;22.77;14.02;;;;;;;9.23;100.00;99710.09;5133543;27;20150;-45
2024/03/10 05:16:05;;;;;;;24.58;13.40;;;;;;;9.20;100.00;99708.47;5133456;27;20047;-44
2024/03/10 05:18:35;;;;;;;26.27;15.52;;;;;;;9.23;100.00;99707.44;5133677;27;20051;-45
2024/03/10 05:21:05;;;;;;;23.35;13.77;;;;;;;9.25;100.00;99708.19;5133544;27;20051;-45
2024/03/10 05:23:33;;;;;;;25.73;14.18;;;;;;;9.31;100.00;99713.97;5133229;27;20059;-47
2024/03/10 05:26:03;;;;;;;23.77;13.70;;;;;;;9.14;100.00;99717.69;5133122;27;20142;-45
2024/03/10 05:28:32;;;;;;;26.08;14.43;;;;;;;8.95;100.00;99717.13;5133122;27;20047;-45
2024/03/10 05:31:00;;;;;;;28.90;14.48;;;;;;;8.87;100.00;99717.59;5133322;27;20084;-45
2024/03/10 05:33:28;;;;;;;24.17;14.52;;;;;;;8.85;100.00;99716.84;5133471;27;20062;-44
2024/03/10 05:35:58;;;;;;;24.45;14.60;;;;;;;8.84;100.00;99724.91;5133245;27;20047;-45
2024/03/10 05:38:27;;;;;;;24.17;14.43;;;;;;;8.92;100.00;99716.47;5133546;27;20043;-45
2024/03/10 05:40:55;;;;;;;24.83;13.98;;;;;;;9.09;100.00;99713.63;5133584;27;20146;-44
2024/03/10 05:43:23;;;;;;;23.75;13.90;;;;;;;9.00;100.00;99722.19;5133577;27;20055;-46
2024/03/10 05:45:52;;;;;;;23.85;14.20;;;;;;;9.02;100.00;99722.94;5134273;27;20054;-45
2024/03/10 05:48:23;;;;;;;26.27;14.02;;;;;;;9.18;100.00;99729.88;5133633;27;20078;-44
2024/03/10 05:50:51;;;;;;;25.58;14.10;;;;;;;9.22;100.00;99729.66;5133096;27;20054;-45
2024/03/10 05:53:20;;;;;;;24.73;13.57;;;;;;;9.17;100.00;99733.50;5132801;27;20050;-44
2024/03/10 05:55:49;;;;;;;23.63;13.98;;;;;;;9.11;100.00;99728.53;5133118;27;20051;-45
2024/03/10 05:58:17;;;;;;;23.52;13.63;;;;;;;8.99;100.00;99726.66;5132887;27;20039;-43
2024/03/10 06:00:46;;;;;;;23.98;13.63;;;;;;;9.03;100.00;99722.84;5132680;27;20065;-43
2024/03/10 06:03:15;;;;;;;24.73;13.75;;;;;;;8.84;100.00;99731.09;5132575;27;20456;-44
2024/03/10 06:05:44;;;;;;;22.95;14.43;;;;;;;9.04;100.00;99726.34;5132212;27;20055;-47
2024/03/10 06:08:12;;;;;;;24.33;14.45;;;;;;;9.18;100.00;99727.22;5132347;27;20043;-45
2024/03/10 06:10:42;;;;;;;24.23;13.98;;;;;;;9.09;100.00;99725.13;5132658;27;20393;-45
2024/03/10 06:13:13;;;;;;;23.23;13.75;;;;;;;9.26;100.00;99731.19;5132608;27;20058;-43
2024/03/10 06:15:42;;;;;;;25.42;14.63;;;;;;;9.06;100.00;99729.75;5132346;27;20050;-45
2024/03/10 06:18:18;;;;;;;24.33;14.73;;;;;;;9.19;100.00;99725.41;5132591;27;20479;-44
2024/03/10 06:26:21;;;;;;;26.73;14.98;;;;;;;8.70;100.00;99727.59;5132508;27;20051;-43
2024/03/10 06:28:50;;;;;;;30.08;14.30;;;;;;;8.68;100.00;99735.63;5132036;27;20170;-45
2024/03/10 06:31:19;;;;;;;24.75;14.40;;;;;;;8.91;100.00;99739.56;5132107;27;20043;-44
2024/03/10 06:33:49;;;;;;;24.25;14.88;;;;;;;8.92;100.00;99743.06;5132098;27;20498;-42
2024/03/10 06:36:18;;;;;;;27.52;15.77;;;;;;;8.94;100.00;99741.16;5132097;27;20043;-43
2024/03/10 06:38:46;;;;;;;26.58;15.32;;;;;;;8.98;100.00;99734.72;5132136;27;20039;-44
2024/03/10 06:41:14;;;;;;;26.95;14.85;;;;;;;9.02;100.00;99737.09;5132134;27;20039;-44
2024/03/10 06:43:44;;;;;;;26.25;15.70;;;;;;;9.12;100.00;99748.03;5132242;27;20399;-46
2024/03/10 06:46:13;;;;;;;27.60;15.23;;;;;;;9.11;100.00;99755.16;5132079;27;20047;-42
2024/03/10 06:48:41;;;;;;;27.27;15.88;;;;;;;9.22;100.00;99746.50;5132132;27;20043;-43
2024/03/10 06:51:10;;;;;;;29.90;16.00;;;;;;;9.34;100.00;99752.84;5132053;27;20116;-45
2024/03/10 06:53:39;;;;;;;27.85;16.02;;;;;;;9.28;100.00;99756.75;5132004;27;20086;-43
2024/03/10 06:56:08;;;;;;;29.25;16.85;;;;;;;9.30;100.00;99762.00;5131766;28;20066;-45
2024/03/10 06:58:37;;;;;;;27.50;15.80;;;;;;;9.26;100.00;99755.13;5131998;27;20135;-43
2024/03/10 07:01:07;;;;;;;28.00;15.68;;;;;;;9.18;100.00;99753.81;5131804;28;20055;-43
2024/03/10 07:03:36;;;;;;;28.48;15.95;;;;;;;9.15;100.00;99745.16;5131845;27;20104;-44
2024/03/10 07:06:06;;;;;;;28.70;15.45;;;;;;;9.04;100.00;99735.19;5131829;28;20119;-44
2024/03/10 07:08:35;;;;;;;27.70;15.50;;;;;;;8.94;100.00;99735.84;5132251;27;20043;-44
2024/03/10 07:11:04;;;;;;;26.98;15.68;;;;;;;9.01;100.00;99731.88;5131694;28;20081;-44
2024/03/10 07:13:33;;;;;;;26.33;15.48;;;;;;;9.11;100.00;99717.91;5131621;27;20079;-46
2024/03/10 07:16:02;;;;;;;27.27;15.85;;;;;;;9.06;100.00;99735.94;5131785;27;20070;-44
2024/03/10 07:18:32;;;;;;;30.58;15.70;;;;;;;9.21;100.00;99727.97;5134633;27;20051;-45
2024/03/10 07:21:00;;;;;;;28.70;16.67;;;;;;;9.27;100.00;99727.59;5135542;27;20521;-44
2024/03/10 07:23:28;;;;;;;28.38;15.88;;;;;;;9.44;100.00;99732.69;5135654;27;20385;-44
2024/03/10 07:25:57;;;;;;;28.55;16.02;;;;;;;9.40;100.00;99734.69;5135407;27;20043;-43
2024/03/10 07:28:26;;;;;;;26.98;15.95;;;;;;;9.56;100.00;99734.59;5135536;27;20058;-43
2024/03/10 07:30:55;;;;;;;28.42;16.10;;;;;;;9.67;100.00;99736.56;5135583;27;20047;-44
2024/03/10 07:33:23;;;;;;;27.63;15.35;;;;;;;9.53;100.00;99737.41;5135126;27;20100;-45
2024/03/10 07:35:53;;;;;;;30.05;16.17;;;;;;;9.46;100.00;99744.09;5135581;27;20050;-44
2024/03/10 07:38:21;;;;;;;28.08;16.02;;;;;;;9.43;100.00;99738.97;5135766;27;20388;-43
2024/03/10 07:40:50;;;;;;;30.17;16.73;;;;;;;9.47;100.00;99735.16;5135462;27;20062;-43
2024/03/10 07:43:24;;;;;;;27.25;16.20;;;;;;;9.38;100.00;99741.06;5135285;27;20501;-43
2024/03/10 07:45:53;;;;;;;29.48;16.02;;;;;;;9.18;100.00;99737.84;5135380;27;20501;-43
2024/03/10 07:48:21;;;;;;;30.02;16.38;;;;;;;9.38;100.00;99743.72;5135093;27;20403;-42
2024/03/10 07:50:50;;;;;;;28.08;16.00;;;;;;;9.54;100.00;99755.09;5135022;27;20047;-44
2024/03/10 07:53:20;;;;;;;30.00;16.75;;;;;;;9.72;100.00;99751.25;5135443;27;20047;-44
2024/03/10 07:55:50;;;;;;;29.65;16.83;;;;;;;9.81;100.00;99740.97;5135126;27;20092;-44
2024/03/10 07:58:18;;;;;;;29.33;16.35;;;;;;;9.91;100.00;99747.41;5134797;27;20550;-44
2024/03/10 08:00:46;;;;;;;28.98;16.77;;;;;;;9.82;100.00;99756.00;5135020;27;20495;-44
2024/03/10 08:03:15;;;;;;;28.45;16.92;;;;;;;9.74;100.00;99754.66;5135188;27;20130;-47
2024/03/10 08:05:43;;;;;;;29.70;16.73;;;;;;;9.64;100.00;99752.69;5135408;27;20403;-44
2024/03/10 08:08:11;;;;;;;30.75;17.10;;;;;;;9.64;100.00;99748.22;5134848;27;20043;-44
2024/03/10 08:10:41;;;;;;;28.75;16.38;;;;;;;9.79;100.00;99740.22;5134891;27;20043;-46
2024/03/10 08:13:09;;;;;;;27.08;15.95;;;;;;;9.80;100.00;99741.94;5134924;27;20075;-45
2024/03/10 08:15:39;;;;;;;31.55;17.30;;;;;;;9.68;100.00;99757.75;5134656;27;20071;-43
2024/03/10 08:18:07;;;;;;;29.83;17.25;;;;;;;9.63;100.00;99753.66;5134840;27;20047;-46
2024/03/10 08:20:37;;;;;;;30.08;17.40;;;;;;;9.56;100.00;99761.22;5134456;27;20082;-45
2024/03/10 08:23:06;;;;;;;29.38;16.98;;;;;;;9.61;100.00;99751.09;5134307;27;20090;-44
2024/03/10 08:25:35;;;;;;;28.98;16.95;;;;;;;9.54;100.00;99752.44;5134517;27;20355;-43
2024/03/10 08:28:05;;;;;;;29.65;17.35;;;;;;;9.67;100.00;99744.53;5133994;27;20044;-45
2024/03/10 08:30:33;;;;;;;29.58;17.75;;;;;;;9.78;100.00;99741.19;5116156;27;20058;-44
2024/03/10 08:33:04;;;;;;;30.23;16.98;;;;;;;9.59;100.00;99726.38;5134489;27;20045;-43
2024/03/10 08:35:33;;;;;;;29.85;17.48;;;;;;;9.54;100.00;99724.97;5134237;27;20047;-44
2024/03/10 08:38:01;;;;;;;30.95;17.85;;;;;;;9.81;100.00;99732.97;5134291;27;20047;-44
2024/03/10 08:40:29;;;;;;;29.02;17.50;;;;;;;10.08;100.00;99731.16;5134108;27;20069;-44
2024/03/10 08:42:58;;;;;;;29.80;17.83;;;;;;;10.24;100.00;99721.25;5134083;27;20047;-44
2024/03/10 08:45:28;;;;;;;28.88;16.48;;;;;;;10.19;100.00;99728.63;5134219;27;20077;-44
2024/03/10 08:47:57;;;;;;;30.10;17.88;;;;;;;10.47;100.00;99726.81;5133909;27;20137;-44
2024/03/10 08:50:28;;;;;;;32.30;18.13;;;;;;;10.80;100.00;99727.16;5133988;27;20104;-45
2024/03/10 08:52:57;;;;;;;26.50;16.83;;;;;;;10.71;100.00;99730.47;5133413;27;20043;-46
2024/03/10 08:55:25;;;;;;;29.23;17.38;;;;;;;10.60;100.00;99727.69;5133791;27;20054;-45
2024/03/10 08:57:53;;;;;;;28.02;16.25;;;;;;;10.56;100.00;99721.72;5134082;27;20039;-44
2024/03/10 09:00:21;;;;;;;26.65;16.50;;;;;;;10.76;100.00;99709.66;5133526;27;20144;-44
2024/03/10 09:02:52;;;;;;;28.77;16.40;;;;;;;10.88;100.00;99708.81;5133413;27;20069;-48
2024/03/10 09:05:21;;;;;;;27.25;16.48;;;;;;;10.71;100.00;99709.16;5133778;27;20062;-43
2024/03/10 09:07:49;;;;;;;26.17;15.55;;;;;;;10.79;100.00;99690.75;5133437;27;20068;-44
2024/03/10 09:10:18;;;;;;;26.33;15.95;;;;;;;10.94;100.00;99683.50;5133605;27;20091;-43
2024/03/10 09:12:47;;;;;;;29.85;16.20;;;;;;;11.36;100.00;99684.91;5134093;27;20471;-44
2024/03/10 09:15:15;;;;;;;25.55;16.35;;;;;;;11.29;100.00;99688.13;5134045;27;20051;-44
2024/03/10 09:17:44;;;;;;;29.48;16.02;;;;;;;11.38;100.00;99682.97;5133604;27;20411;-45
2024/03/10 09:20:15;;;;;;;25.48;15.40;;;;;;;11.65;100.00;99679.28;5133514;27;20090;-44
2024/03/10 09:22:45;;;;;;;24.30;14.75;;;;;;;11.44;100.00;99693.22;5133250;27;20089;-44
2024/03/10 09:25:20;;;;;;;24.92;15.35;;;;;;;11.53;100.00;99699.72;5133416;27;20089;-43
2024/03/10 09:27:51;;;;;;;25.10;15.45;;;;;;;11.81;100.00;99689.72;5133293;27;20047;-43
2024/03/10 09:30:21;;;;;;;24.85;15.00;;;;;;;11.62;100.00;99692.88;5133102;27;20079;-44
2024/03/10 09:32:50;;;;;;;26.50;16.38;;;;;;;11.64;100.00;99686.44;5132688;27;20552;-43
2024/03/10 09:35:23;;;;;;;28.02;16.40;;;;;;;11.76;100.00;99692.69;5133075;27;20143;-43
2024/03/10 09:37:54;;;;;;;25.80;16.15;;;;;;;11.88;100.00;99683.81;5132960;27;20484;-43
2024/03/10 09:40:28;;;;;;;27.23;15.68;;;;;;;11.65;100.00;99684.63;5132599;27;20043;-44
2024/03/10 09:42:59;;;;;;;26.67;16.38;;;;;;;11.65;100.00;99684.63;5125786;27;20035;-45
2024/03/10 09:45:29;;;;;;;25.48;15.45;;;;;;;11.93;100.00;99672.78;5132078;27;20070;-43
2024/03/10 09:47:58;;;;;;;27.13;15.77;;;;;;;12.09;100.00;99669.81;5132899;27;20055;-44
2024/03/10 09:50:31;;;;;;;26.20;15.43;;;;;;;13.06;100.00;99674.72;5132039;27;20513;-43
2024/03/10 09:52:59;;;;;;;25.87;15.47;;;;;;;12.60;100.00;99673.81;5132839;27;20107;-44
2024/03/10 09:55:28;;;;;;;26.77;15.88;;;;;;;12.67;100.00;99682.25;5132446;27;20051;-46
2024/03/10 09:57:57;;;;;;;22.77;15.23;;;;;;;12.71;100.00;99667.63;5132555;27;20095;-45
2024/03/10 10:00:27;;;;;;;27.83;15.95;;;;;;;12.38;100.00;99676.47;5131466;27;20499;-44
2024/03/10 10:02:59;;;;;;;23.88;15.60;;;;;;;12.42;100.00;99680.59;5132218;27;20103;-49
2024/03/10 10:05:32;;;;;;;25.02;16.02;;;;;;;12.33;100.00;99673.28;5131954;27;20042;-43
2024/03/10 10:08:07;;;;;;;29.13;16.33;;;;;;;12.43;100.00;99676.94;5111518;28;20130;-45
2024/03/10 10:10:36;;;;;;;25.98;16.00;;;;;;;12.63;100.00;99679.91;5112256;27;20502;-42
2024/03/10 10:13:05;;;;;;;26.65;15.88;;;;;;;12.60;100.00;99671.16;5130397;27;20078;-44
2024/03/10 10:15:34;;;;;;;23.90;15.63;;;;;;;12.50;100.00;99662.13;5131280;27;20047;-43
2024/03/10 10:18:03;;;;;;;26.88;15.68;;;;;;;12.66;100.00;99667.16;5130709;27;20047;-43
2024/03/10 10:20:33;;;;;;;25.15;15.52;;;;;;;12.95;100.00;99645.28;5129798;27;20050;-44
2024/03/10 10:23:04;;;;;;;21.85;14.48;;;;;;;12.88;100.00;99658.28;5137975;27;20125;-43
2024/03/10 10:25:35;;;;;;;27.00;16.15;;;;;;;12.65;100.00;99659.25;5137843;27;20523;-45
2024/03/10 10:28:04;;;;;;;24.63;16.58;;;;;;;12.89;100.00;99658.16;5136407;27;20486;-44
2024/03/10 10:30:32;;;;;;;23.70;15.25;;;;;;;13.16;100.00;99654.28;5138866;27;20047;-45
2024/03/10 10:33:04;;;;;;;27.42;15.90;;;;;;;13.04;100.00;99645.41;5146302;27;20532;-45
2024/03/10 10:35:39;;;;;;;24.75;14.88;;;;;;;13.18;100.00;99642.44;5152183;27;20042;-44
2024/03/10 10:38:12;;;;;;;24.23;14.75;;;;;;;13.13;100.00;99639.31;5152057;27;20089;-45
2024/03/10 10:40:41;;;;;;;22.77;14.30;;;;;;;13.35;100.00;99637.59;5152114;27;20061;-45
2024/03/10 10:43:10;;;;;;;20.95;14.02;;;;;;;13.77;100.00;99637.72;5152297;27;20038;-46
2024/03/10 10:45:38;;;;;;;23.38;14.77;;;;;;;13.70;100.00;99627.53;5133405;27;20042;-45
2024/03/10 10:48:08;;;;;;;21.70;14.02;;;;;;;14.01;100.00;99633.84;5152142;27;20055;-44
2024/03/10 10:50:42;;;;;;;20.52;13.40;;;;;;;13.90;100.00;99638.41;5151912;27;20500;-44
2024/03/10 10:53:12;;;;;;;20.98;13.63;;;;;;;13.90;100.00;99620.50;5152314;27;20479;-45
2024/03/10 10:55:42;;;;;;;23.00;13.80;;;;;;;13.93;100.00;99624.75;5151848;27;20043;-45
2024/03/10 10:58:15;;;;;;;23.15;14.07;;;;;;;14.04;100.00;99622.00;5141042;27;20071;-44
2024/03/10 11:00:50;;;;;;;23.40;14.77;;;;;;;14.08;100.00;99619.91;5110604;28;20051;-48
2024/03/10 11:03:24;;;;;;;24.42;14.57;;;;;;;14.08;100.00;99612.72;5111059;28;20040;-45
2024/03/10 11:06:27;;;;;;;23.27;14.27;;;;;;;14.01;100.00;99616.91;5111165;28;20051;-46
2024/03/10 11:08:56;;;;;;;22.73;14.32;;;;;;;13.98;100.00;99603.75;5110695;28;20047;-45
2024/03/10 11:11:47;;;;;;;24.27;13.85;;;;;;;14.10;100.00;99604.56;5110814;28;20052;-44
2024/03/10 11:14:17;;;;;;;23.00;14.63;;;;;;;14.06;100.00;99593.22;5110623;28;20131;-44
2024/03/10 11:16:46;;;;;;;22.25;13.75;;;;;;;14.24;100.00;99591.66;5110546;28;20124;-44
2024/03/10 11:19:18;;;;;;;21.95;13.93;;;;;;;14.05;100.00;99599.56;5110325;28;20096;-44
2024/03/10 11:21:49;;;;;;;22.23;13.80;;;;;;;13.80;100.00;99594.56;5110644;28;20090;-44
2024/03/10 11:24:21;;;;;;;26.20;14.73;;;;;;;14.20;100.00;99592.91;5110366;28;20098;-45
2024/03/10 11:27:15;;;;;;;22.67;13.73;;;;;;;14.28;100.00;99584.19;5110738;28;20043;-43
2024/03/10 11:29:44;;;;;;;20.52;13.45;;;;;;;14.30;100.00;99593.81;5109906;28;20135;-45
2024/03/10 11:32:37;;;;;;;22.90;14.05;;;;;;;14.22;100.00;99579.38;5110407;28;20047;-45
2024/03/10 11:35:10;;;;;;;22.33;13.68;;;;;;;14.24;100.00;99585.44;5110409;28;20479;-44
2024/03/10 11:37:40;;;;;;;22.92;13.73;;;;;;;14.18;100.00;99578.75;5110269;28;20564;-45
2024/03/10 11:40:15;;;;;;;23.83;14.73;;;;;;;14.30;100.00;99566.16;5110260;28;20086;-47
2024/03/10 11:42:45;;;;;;;22.55;13.43;;;;;;;14.44;100.00;99559.56;5110492;28;20051;-45
2024/03/10 11:45:13;;;;;;;20.35;13.25;;;;;;;14.53;100.00;99562.34;5110330;28;20111;-45
2024/03/10 11:47:44;;;;;;;20.33;13.35;;;;;;;14.84;100.00;99555.09;5110581;28;20052;-48